createdAt,value
2022-10-05T00:00:00.652Z,98531.75
2022-10-05T00:03:11.273Z,98526.13
2022-10-05T00:06:15.384Z,98522.28
2022-10-05T00:09:21.757Z,98513.97
2022-10-05T00:12:26.507Z,98520.59
2022-10-05T00:15:30.419Z,98512.19
2022-10-05T00:18:33.961Z,98512.03
2022-10-05T00:21:37.453Z,98507.84
2022-10-05T00:24:41.935Z,98509.31
2022-10-05T00:27:49.653Z,98441.06
2022-10-05T00:30:56.565Z,98504.38
2022-10-05T00:34:00.202Z,98505.97
2022-10-05T00:37:04.185Z,98491.38
2022-10-05T00:40:21.353Z,98506.19
2022-10-05T00:43:45.031Z,98501.91
2022-10-05T00:46:55.761Z,98462.13
2022-10-05T00:50:18.989Z,98487.50
2022-10-05T00:53:39.178Z,98495.19
2022-10-05T00:57:22.593Z,98496.91
2022-10-05T01:00:27.929Z,98478.19
2022-10-05T01:03:38.475Z,98466.28
2022-10-05T01:06:55.589Z,98486.72
2022-10-05T01:10:12.675Z,98490.97
2022-10-05T01:13:26.673Z,98489.34
2022-10-05T01:16:37.030Z,98491.88
2022-10-05T01:20:03.115Z,98474.88
2022-10-05T01:23:30.261Z,98468.06
2022-10-05T01:26:55.325Z,98485.38
2022-10-05T01:30:03.837Z,98482.41
2022-10-05T01:33:17.060Z,98486.94
2022-10-05T01:36:31.172Z,98487.91
2022-10-05T01:39:44.749Z,98491.84
2022-10-05T01:43:00.088Z,98494.34
2022-10-05T01:46:11.600Z,98496.91
2022-10-05T01:49:36.199Z,98501.53
2022-10-05T01:52:50.178Z,98495.16
2022-10-05T01:56:02.208Z,98488.63
2022-10-05T01:59:19.034Z,98490.81
2022-10-05T02:02:26.976Z,98484.13
2022-10-05T02:05:39.302Z,98485.88
2022-10-05T02:08:47.979Z,98485.44
2022-10-05T02:11:57.707Z,98478.81
2022-10-05T02:15:08.312Z,98475.00
2022-10-05T02:18:19.087Z,98500.59
2022-10-05T02:21:24.494Z,98497.00
2022-10-05T02:24:33.421Z,98506.75
2022-10-05T02:27:50.270Z,98497.56
2022-10-05T02:30:57.835Z,98459.31
2022-10-05T02:34:28.684Z,98468.63
2022-10-05T02:38:01.844Z,98456.81
2022-10-05T02:41:25.301Z,98447.28
2022-10-05T02:44:40.162Z,98455.44
2022-10-05T02:47:50.595Z,98464.72
2022-10-05T02:51:03.925Z,98462.88
2022-10-05T02:54:16.534Z,98452.00
2022-10-05T02:57:27.956Z,98436.94
2022-10-05T03:00:37.001Z,98461.44
2022-10-05T03:03:44.565Z,98454.09
2022-10-05T03:07:00.002Z,98440.78
2022-10-05T03:10:08.790Z,98461.41
2022-10-05T03:13:22.556Z,98459.75
2022-10-05T03:16:39.504Z,98461.13
2022-10-05T03:20:17.313Z,98462.94
2022-10-05T03:23:34.929Z,98454.56
2022-10-05T03:26:49.926Z,98426.66
2022-10-05T03:29:59.322Z,98455.38
2022-10-05T03:35:13.259Z,98424.47
2022-10-05T03:38:24.591Z,98428.28
2022-10-05T03:41:35.916Z,98415.56
2022-10-05T03:44:50.536Z,98424.25
2022-10-05T03:48:04.113Z,98415.38
2022-10-05T03:51:21.286Z,98411.63
2022-10-05T03:54:29.976Z,98411.50
2022-10-05T03:57:38.460Z,98384.06
2022-10-05T04:00:44.768Z,98404.34
2022-10-05T04:03:51.822Z,98366.00
2022-10-05T04:06:59.109Z,98400.66
2022-10-05T04:10:07.287Z,98391.88
2022-10-05T04:13:16.463Z,98386.66
2022-10-05T04:16:24.167Z,98376.31
2022-10-05T04:19:35.595Z,98386.38
2022-10-05T04:22:44.151Z,98385.91
2022-10-05T04:25:51.666Z,98388.63
2022-10-05T04:29:04.353Z,98393.19
2022-10-05T04:32:22.556Z,98398.44
2022-10-05T04:35:55.686Z,98396.09
2022-10-05T04:39:15.604Z,98375.84
2022-10-05T04:42:30.515Z,98393.28
2022-10-05T04:45:46.279Z,98358.16
2022-10-05T04:49:09.162Z,98406.59
2022-10-05T04:52:22.485Z,98398.38
2022-10-05T04:55:37.088Z,98390.63
2022-10-05T04:58:57.906Z,98424.63
2022-10-05T05:02:11.996Z,98424.47
2022-10-05T05:06:04.947Z,98423.97
2022-10-05T05:09:34.405Z,98423.13
2022-10-05T05:12:53.498Z,98412.44
2022-10-05T05:16:05.683Z,98429.69
2022-10-05T05:19:35.142Z,98430.56
2022-10-05T05:22:46.532Z,98422.50
2022-10-05T05:26:02.530Z,98430.41
2022-10-05T05:29:16.937Z,98433.38
2022-10-05T05:32:32.101Z,98429.75
2022-10-05T05:35:50.366Z,98431.25
2022-10-05T05:38:58.857Z,98439.78
2022-10-05T05:42:06.338Z,98440.69
2022-10-05T05:45:17.656Z,98450.16
2022-10-05T05:48:27.957Z,98451.78
2022-10-05T05:51:36.371Z,98451.78
2022-10-05T05:54:44.186Z,98457.81
2022-10-05T05:57:52.412Z,98454.50
2022-10-05T06:01:02.553Z,98451.16
2022-10-05T06:04:12.254Z,98457.13
2022-10-05T06:07:20.734Z,98458.53
2022-10-05T06:10:32.524Z,98393.34
2022-10-05T06:13:43.698Z,98465.13
2022-10-05T06:16:55.445Z,98427.66
2022-10-05T06:20:05.055Z,98470.50
2022-10-05T06:23:19.117Z,98470.97
2022-10-05T06:26:39.478Z,98460.75
2022-10-05T06:30:02.701Z,98477.59
2022-10-05T06:33:23.906Z,98480.97
2022-10-05T06:36:40.271Z,98486.75
2022-10-05T06:40:01.061Z,98489.06
2022-10-05T06:43:25.449Z,98499.50
2022-10-05T06:46:56.640Z,98478.28
2022-10-05T06:50:33.726Z,98500.00
2022-10-05T06:54:06.093Z,98507.03
2022-10-05T06:57:25.247Z,98505.88
2022-10-05T07:00:35.337Z,98504.56
2022-10-05T07:03:49.997Z,98495.50
2022-10-05T07:06:59.559Z,98503.78
2022-10-05T07:10:18.188Z,98506.25
2022-10-05T07:13:40.880Z,98496.34
2022-10-05T07:16:57.181Z,98504.97
2022-10-05T07:20:09.625Z,98509.75
2022-10-05T07:23:24.067Z,98514.56
2022-10-05T07:26:34.634Z,98511.78
2022-10-05T07:29:47.740Z,98508.03
2022-10-05T07:32:59.680Z,98483.03
2022-10-05T07:36:27.765Z,98507.59
2022-10-05T07:39:58.989Z,98510.97
2022-10-05T07:43:14.919Z,98514.72
2022-10-05T07:46:24.860Z,98510.59
2022-10-05T07:49:37.790Z,98521.84
2022-10-05T07:52:50.792Z,98527.53
2022-10-05T07:56:00.311Z,98523.25
2022-10-05T07:59:09.562Z,98525.66
2022-10-05T08:02:23.754Z,98503.94
2022-10-05T08:05:30.230Z,98530.91
2022-10-05T08:08:44.028Z,98546.81
2022-10-05T08:11:56.634Z,98540.44
2022-10-05T08:15:04.316Z,98546.69
2022-10-05T08:18:16.893Z,98535.81
2022-10-05T08:21:25.829Z,98547.41
2022-10-05T08:24:41.791Z,98551.91
2022-10-05T08:27:52.834Z,98538.78
2022-10-05T08:31:01.437Z,98541.31
2022-10-05T08:34:17.436Z,98547.53
2022-10-05T08:37:25.241Z,98534.34
2022-10-05T08:40:42.760Z,98541.25
2022-10-05T08:44:08.131Z,98523.84
2022-10-05T08:47:38.130Z,98533.66
2022-10-05T08:51:03.991Z,98529.56
2022-10-05T08:54:40.113Z,98529.53
2022-10-05T08:58:12.244Z,98540.09
2022-10-05T09:01:23.496Z,98529.28
2022-10-05T09:04:42.793Z,98500.34
2022-10-05T09:08:08.644Z,98537.16
2022-10-05T09:11:16.697Z,98506.53
2022-10-05T09:14:42.858Z,98532.91
2022-10-05T09:18:21.411Z,98528.88
2022-10-05T09:21:41.296Z,98528.91
2022-10-05T09:24:57.249Z,98530.66
2022-10-05T09:28:12.218Z,98535.72
2022-10-05T09:35:16.980Z,98531.34
2022-10-05T09:38:32.835Z,98534.19
2022-10-05T09:42:09.315Z,98519.25
2022-10-05T09:45:49.246Z,98522.44
2022-10-05T09:49:11.487Z,98520.53
2022-10-05T09:52:48.872Z,98518.25
2022-10-05T09:56:13.222Z,98512.06
2022-10-05T10:00:02.298Z,98520.78
2022-10-05T10:03:45.632Z,98508.97
2022-10-05T10:07:21.596Z,98505.00
2022-10-05T10:11:02.593Z,98504.44
2022-10-05T10:14:23.983Z,98504.44
2022-10-05T10:17:43.925Z,98506.88
2022-10-05T10:21:24.727Z,98501.84
2022-10-05T10:25:02.183Z,98507.88
2022-10-05T10:28:32.421Z,98438.41
2022-10-05T10:31:50.727Z,98492.50
2022-10-05T10:35:20.722Z,98496.41
2022-10-05T10:38:33.132Z,98488.97
2022-10-05T10:42:22.571Z,98475.41
2022-10-05T10:45:45.433Z,98485.81
2022-10-05T10:49:07.999Z,98479.75
2022-10-05T10:52:26.627Z,98495.19
2022-10-05T10:55:39.114Z,98479.00
2022-10-05T10:59:18.522Z,98488.75
2022-10-05T11:02:42.483Z,98481.00
2022-10-05T11:06:27.238Z,98478.69
2022-10-05T11:09:53.459Z,98475.25
2022-10-05T11:13:24.784Z,98471.44
2022-10-05T11:16:39.788Z,98464.25
2022-10-05T11:20:06.325Z,98459.91
2022-10-05T11:23:39.796Z,98457.28
2022-10-05T11:27:12.176Z,98453.22
2022-10-05T11:30:37.802Z,98458.25
2022-10-05T11:34:18.407Z,98455.16
2022-10-05T11:37:39.830Z,98453.25
2022-10-05T11:41:03.256Z,98456.25
2022-10-05T11:44:35.485Z,98449.47
2022-10-05T11:47:48.147Z,98445.72
2022-10-05T11:51:09.642Z,98437.56
2022-10-05T11:54:35.144Z,98431.56
2022-10-05T11:57:54.801Z,98422.66
2022-10-05T12:01:04.088Z,98428.75
2022-10-05T12:04:18.957Z,98434.84
2022-10-05T12:07:30.353Z,98406.03
2022-10-05T12:10:45.393Z,98415.34
2022-10-05T12:13:56.011Z,98406.97
2022-10-05T12:17:13.029Z,98409.25
2022-10-05T12:20:21.541Z,98418.75
2022-10-05T12:23:34.013Z,98412.94
2022-10-05T12:26:44.729Z,98409.47
2022-10-05T12:29:57.203Z,98409.38
2022-10-05T12:33:09.518Z,98401.81
2022-10-05T12:36:16.068Z,98405.97
2022-10-05T12:39:27.091Z,98408.41
2022-10-05T12:42:41.621Z,98421.03
2022-10-05T12:45:59.692Z,98415.88
2022-10-05T12:49:18.219Z,98410.31
2022-10-05T12:52:37.003Z,98392.56
2022-10-05T12:55:48.236Z,98410.19
2022-10-05T12:59:01.061Z,98420.00
2022-10-05T13:02:14.116Z,98405.09
2022-10-05T13:05:28.231Z,98415.16
2022-10-05T13:08:41.351Z,98413.25
2022-10-05T13:11:49.418Z,98405.03
2022-10-05T13:15:05.206Z,98400.28
2022-10-05T13:18:22.426Z,98398.59
2022-10-05T13:21:34.015Z,98404.84
2022-10-05T13:24:43.609Z,98401.34
2022-10-05T13:27:53.278Z,98391.97
2022-10-05T13:31:07.966Z,98390.69
2022-10-05T13:34:24.619Z,98391.31
2022-10-05T13:37:34.918Z,98380.31
2022-10-05T13:40:47.015Z,98382.63
2022-10-05T13:44:00.079Z,98367.91
2022-10-05T13:47:09.529Z,98384.13
2022-10-05T13:50:20.160Z,98384.78
2022-10-05T13:53:37.426Z,98381.09
2022-10-05T13:56:45.901Z,98371.97
2022-10-05T13:59:54.976Z,98368.34
2022-10-05T14:03:01.945Z,98377.63
2022-10-05T14:06:12.417Z,98368.66
2022-10-05T14:09:29.512Z,98364.97
2022-10-05T14:12:41.284Z,98367.72
2022-10-05T14:15:57.263Z,98319.44
2022-10-05T14:19:24.647Z,98353.38
2022-10-05T14:22:29.539Z,98332.47
2022-10-05T14:25:46.437Z,98359.09
2022-10-05T14:29:01.173Z,98348.81
2022-10-05T14:32:13.921Z,98354.31
2022-10-05T14:35:21.969Z,98339.50
2022-10-05T14:38:29.400Z,98331.84
2022-10-05T14:41:37.574Z,98338.81
2022-10-05T14:44:41.049Z,98334.25
2022-10-05T14:47:48.965Z,98332.00
2022-10-05T14:50:59.312Z,98334.91
2022-10-05T14:54:04.632Z,98321.66
2022-10-05T14:57:16.336Z,98316.78
2022-10-05T15:00:20.155Z,98326.09
2022-10-05T15:03:51.970Z,98325.03
2022-10-05T15:07:14.105Z,98326.09
2022-10-05T15:10:33.804Z,98287.97
2022-10-05T15:13:41.451Z,98336.28
2022-10-05T15:16:45.964Z,98326.91
2022-10-05T15:20:01.689Z,98324.41
2022-10-05T15:23:24.493Z,98325.09
2022-10-05T15:26:41.532Z,98319.53
2022-10-05T15:29:57.737Z,98337.50
2022-10-05T15:35:32.027Z,98310.25
2022-10-05T15:38:42.667Z,98331.31
2022-10-05T15:42:00.176Z,98325.44
2022-10-05T15:45:13.294Z,98322.00
2022-10-05T15:48:20.920Z,98337.22
2022-10-05T15:51:31.755Z,98332.25
2022-10-05T15:55:02.745Z,98332.53
2022-10-05T15:58:23.663Z,98324.81
2022-10-05T16:01:47.165Z,98323.22
2022-10-05T16:05:04.484Z,98322.53
2022-10-05T16:08:32.838Z,98328.50
2022-10-05T16:11:53.918Z,98336.31
2022-10-05T16:15:07.280Z,98324.41
2022-10-05T16:18:34.018Z,98332.69
2022-10-05T16:21:45.803Z,98339.50
2022-10-05T16:25:03.806Z,98333.44
2022-10-05T16:28:18.918Z,98330.50
2022-10-05T16:31:31.041Z,98326.59
2022-10-05T16:34:49.337Z,98334.03
2022-10-05T16:38:05.743Z,98335.41
2022-10-05T16:41:20.861Z,98323.19
2022-10-05T16:44:34.465Z,98317.47
2022-10-05T16:47:47.913Z,98348.84
2022-10-05T16:51:02.503Z,98344.41
2022-10-05T16:54:19.024Z,98332.31
2022-10-05T16:57:28.202Z,98293.00
2022-10-05T17:00:40.758Z,98353.44
2022-10-05T17:04:03.294Z,98341.31
2022-10-05T17:07:22.674Z,98356.09
2022-10-05T17:10:41.084Z,98362.09
2022-10-05T17:14:04.859Z,98355.34
2022-10-05T17:17:34.273Z,98368.63
2022-10-05T17:20:47.009Z,98365.28
2022-10-05T17:23:55.832Z,98365.56
2022-10-05T17:27:07.175Z,98368.44
2022-10-05T17:30:53.966Z,98364.97
2022-10-05T17:34:27.299Z,98375.69
2022-10-05T17:37:36.461Z,98374.94
2022-10-05T17:40:40.619Z,98380.63
2022-10-05T17:44:19.964Z,98377.31
2022-10-05T17:47:58.434Z,98377.06
2022-10-05T17:51:19.066Z,98387.16
2022-10-05T17:54:41.600Z,98389.97
2022-10-05T17:57:44.868Z,98389.22
2022-10-05T18:01:16.992Z,98386.09
2022-10-05T18:04:34.617Z,98386.75
2022-10-05T18:07:39.203Z,98384.00
2022-10-05T18:11:07.091Z,98385.19
2022-10-05T18:14:19.955Z,98391.84
2022-10-05T18:17:39.894Z,98391.75
2022-10-05T18:21:20.429Z,98392.94
2022-10-05T18:24:45.234Z,98405.69
2022-10-05T18:28:00.880Z,98404.13
2022-10-05T18:31:18.321Z,98396.50
2022-10-05T18:34:32.387Z,98408.66
2022-10-05T18:37:48.644Z,98404.03
2022-10-05T18:41:00.203Z,98409.19
2022-10-05T18:44:21.894Z,98412.63
2022-10-05T18:47:33.129Z,98406.22
2022-10-05T18:50:43.642Z,98406.59
2022-10-05T18:54:02.734Z,98408.59
2022-10-05T18:57:38.625Z,98405.25
2022-10-05T19:00:59.914Z,98405.75
2022-10-05T19:04:19.311Z,98395.66
2022-10-05T19:07:33.663Z,98410.31
2022-10-05T19:10:45.239Z,98414.50
2022-10-05T19:13:58.338Z,98403.22
2022-10-05T19:17:19.254Z,98417.00
2022-10-05T19:20:27.464Z,98413.38
2022-10-05T19:23:47.865Z,98417.19
2022-10-05T19:27:06.555Z,98403.00
2022-10-05T19:30:19.613Z,98422.78
2022-10-05T19:33:39.637Z,98422.81
2022-10-05T19:37:02.267Z,98430.53
2022-10-05T19:40:16.580Z,98430.06
2022-10-05T19:43:45.645Z,98422.19
2022-10-05T19:46:59.698Z,98435.34
2022-10-05T19:50:25.933Z,98441.19
2022-10-05T19:53:31.838Z,98444.03
2022-10-05T19:56:46.640Z,98441.50
2022-10-05T19:59:57.493Z,98454.53
2022-10-05T20:03:12.856Z,98453.38
2022-10-05T20:06:16.186Z,98450.16
2022-10-05T20:09:21.538Z,98442.66
2022-10-05T20:12:50.534Z,98452.59
2022-10-05T20:16:45.847Z,98464.50
2022-10-05T20:20:06.436Z,98475.44
2022-10-05T20:23:24.196Z,98476.31
2022-10-05T20:27:05.478Z,98482.06
2022-10-05T20:30:10.342Z,98498.91
2022-10-05T20:33:14.855Z,98497.25
2022-10-05T20:36:17.967Z,98503.88
2022-10-05T20:39:21.470Z,98504.59
2022-10-05T20:42:25.403Z,98515.66
2022-10-05T20:45:28.555Z,98516.13
2022-10-05T20:48:33.068Z,98517.03
2022-10-05T20:51:36.802Z,98515.81
2022-10-05T20:54:40.493Z,98526.03
2022-10-05T20:57:46.004Z,98530.59
2022-10-05T21:01:06.768Z,98495.72
2022-10-05T21:04:11.374Z,98506.22
2022-10-05T21:07:15.379Z,98525.09
2022-10-05T21:10:18.660Z,98534.25
2022-10-05T21:13:21.778Z,98537.84
2022-10-05T21:16:25.013Z,98533.34
2022-10-05T21:19:30.191Z,98542.41
2022-10-05T21:22:35.454Z,98551.50
2022-10-05T21:25:38.692Z,98551.41
2022-10-05T21:28:42.564Z,98549.47
2022-10-05T21:35:02.721Z,98506.19
2022-10-05T21:38:05.989Z,98524.63
2022-10-05T21:41:09.451Z,98536.44
2022-10-05T21:44:12.643Z,98524.41
2022-10-05T21:47:15.826Z,98552.97
2022-10-05T21:50:22.504Z,98553.00
2022-10-05T21:53:28.778Z,98549.34
2022-10-05T21:56:34.822Z,98539.03
2022-10-05T21:59:38.131Z,98571.03
2022-10-05T22:02:41.670Z,98572.44
2022-10-05T22:05:46.246Z,98566.28
2022-10-05T22:08:49.554Z,98581.06
2022-10-05T22:11:53.115Z,98582.97
2022-10-05T22:14:56.342Z,98576.94
2022-10-05T22:18:00.496Z,98588.13
2022-10-05T22:21:05.976Z,98585.59
2022-10-05T22:24:09.923Z,98595.66
2022-10-05T22:27:13.371Z,98606.06
2022-10-05T22:30:16.713Z,98600.31
2022-10-05T22:33:19.892Z,98608.44
2022-10-05T22:36:24.771Z,98569.91
2022-10-05T22:39:28.091Z,98612.50
2022-10-05T22:42:31.195Z,98613.38
2022-10-05T22:45:34.559Z,98618.38
2022-10-05T22:48:37.710Z,98627.19
2022-10-05T22:51:42.180Z,98626.50
2022-10-05T22:54:45.553Z,98618.66
2022-10-05T22:57:49.189Z,98628.31
2022-10-05T23:00:58.362Z,98623.56
2022-10-05T23:04:02.032Z,98629.91
2022-10-05T23:07:06.549Z,98627.19
2022-10-05T23:10:12.270Z,98628.09
2022-10-05T23:13:16.282Z,98630.41
2022-10-05T23:16:21.236Z,98632.63
2022-10-05T23:19:24.782Z,98643.44
2022-10-05T23:22:29.269Z,98649.59
2022-10-05T23:25:32.576Z,98646.19
2022-10-05T23:28:35.872Z,98637.34
2022-10-05T23:31:38.972Z,98647.44
2022-10-05T23:34:42.192Z,98647.50
2022-10-05T23:37:46.681Z,98651.47
2022-10-05T23:40:49.798Z,98649.09
2022-10-05T23:43:54.647Z,98656.69
2022-10-05T23:46:57.755Z,98660.81
2022-10-05T23:50:00.902Z,98643.06
2022-10-05T23:53:05.732Z,98660.81
2022-10-05T23:56:09.231Z,98671.38
2022-10-05T23:59:12.439Z,98661.50
